createdAt,value
2022-12-23T00:04:15.435Z,433.73
2022-12-23T00:09:22.620Z,431.46
2022-12-23T00:14:29.835Z,433.26
2022-12-23T00:19:37.036Z,434.17
2022-12-23T00:24:44.279Z,433.89
2022-12-23T00:29:51.445Z,432.98
2022-12-23T00:34:58.654Z,433.56
2022-12-23T00:40:06.976Z,433.67
2022-12-23T00:45:13.144Z,432.45
2022-12-23T00:50:21.581Z,435.01
2022-12-23T00:55:28.805Z,434.00
2022-12-23T01:00:35.996Z,433.36
2022-12-23T01:05:43.246Z,430.97
2022-12-23T01:10:50.526Z,431.57
2022-12-23T01:15:57.694Z,431.29
2022-12-23T01:21:05.193Z,432.46
2022-12-23T01:26:12.436Z,430.96
2022-12-23T01:31:19.695Z,428.82
2022-12-23T01:36:26.822Z,430.06
2022-12-23T01:41:34.082Z,428.28
2022-12-23T01:46:41.300Z,428.31
2022-12-23T01:51:48.543Z,428.66
2022-12-23T01:56:55.799Z,428.45
2022-12-23T02:02:03.116Z,427.23
2022-12-23T02:07:10.194Z,426.02
2022-12-23T02:12:17.381Z,422.26
2022-12-23T02:17:24.485Z,422.24
2022-12-23T02:22:31.745Z,422.50
2022-12-23T02:27:38.894Z,422.12
2022-12-23T02:32:46.080Z,422.29
2022-12-23T02:37:53.275Z,422.48
2022-12-23T02:43:00.547Z,423.56
2022-12-23T02:48:07.746Z,423.16
2022-12-23T02:53:15.007Z,423.46
2022-12-23T02:58:22.352Z,422.31
2022-12-23T03:03:29.495Z,421.19
2022-12-23T03:08:36.636Z,424.55
2022-12-23T03:13:43.884Z,425.22
2022-12-23T03:18:51.121Z,424.95
2022-12-23T03:23:58.330Z,421.44
2022-12-23T03:29:05.572Z,418.81
2022-12-23T03:34:12.709Z,420.42
2022-12-23T03:39:19.976Z,421.42
2022-12-23T03:44:27.240Z,419.83
2022-12-23T03:49:34.389Z,422.36
2022-12-23T03:54:41.617Z,423.31
2022-12-23T03:59:48.833Z,421.95
2022-12-23T04:04:55.971Z,422.50
2022-12-23T04:10:03.144Z,422.27
2022-12-23T04:15:13.111Z,421.58
2022-12-23T04:20:17.574Z,418.65
2022-12-23T04:25:24.811Z,418.69
2022-12-23T04:30:34.553Z,420.87
2022-12-23T04:35:39.211Z,420.45
2022-12-23T04:40:46.371Z,420.57
2022-12-23T04:45:53.556Z,421.52
2022-12-23T04:51:00.698Z,420.96
2022-12-23T04:56:07.938Z,418.06
2022-12-23T05:01:15.241Z,422.77
2022-12-23T05:06:22.398Z,420.03
2022-12-23T05:11:29.584Z,420.78
2022-12-23T05:16:37.145Z,418.96
2022-12-23T05:21:44.123Z,416.17
2022-12-23T05:26:59.236Z,415.42
2022-12-23T05:31:58.759Z,417.17
2022-12-23T05:37:05.746Z,419.60
2022-12-23T05:42:12.962Z,420.26
2022-12-23T05:47:20.199Z,419.63
2022-12-23T05:52:27.388Z,420.76
2022-12-23T05:57:34.592Z,418.77
2022-12-23T06:02:42.104Z,417.66
2022-12-23T06:07:48.985Z,420.05
2022-12-23T06:12:56.177Z,416.71
2022-12-23T06:18:03.412Z,418.73
2022-12-23T06:23:10.602Z,419.83
2022-12-23T06:28:17.795Z,419.52
2022-12-23T06:33:25.040Z,419.94
2022-12-23T06:38:32.211Z,419.09
2022-12-23T06:43:39.447Z,418.21
2022-12-23T06:48:46.643Z,415.85
2022-12-23T06:53:53.890Z,415.44
2022-12-23T06:59:01.092Z,416.79
2022-12-23T07:04:08.358Z,414.98
2022-12-23T07:09:15.570Z,415.41
2022-12-23T07:14:22.716Z,414.58
2022-12-23T07:19:29.984Z,415.03
2022-12-23T07:24:37.145Z,416.54
2022-12-23T07:29:44.400Z,416.89
2022-12-23T07:34:51.602Z,415.62
2022-12-23T07:40:02.312Z,414.96
2022-12-23T07:45:05.970Z,414.18
2022-12-23T07:50:15.195Z,414.35
2022-12-23T07:55:22.273Z,415.17
2022-12-23T08:00:29.446Z,414.83
2022-12-23T08:05:36.653Z,413.71
2022-12-23T08:10:48.289Z,412.59
2022-12-23T08:15:51.039Z,411.88
2022-12-23T08:20:58.325Z,413.67
2022-12-23T08:26:05.569Z,413.05
2022-12-23T08:31:12.836Z,412.15
2022-12-23T08:36:23.136Z,411.89
2022-12-23T08:41:27.181Z,413.94
2022-12-23T08:46:34.499Z,413.91
2022-12-23T08:51:41.631Z,412.96
2022-12-23T08:56:48.777Z,411.78
2022-12-23T09:01:56.167Z,411.80
2022-12-23T09:07:03.284Z,412.00
2022-12-23T09:12:10.497Z,411.37
2022-12-23T09:17:17.729Z,412.47
2022-12-23T09:22:24.932Z,411.20
2022-12-23T09:27:32.120Z,410.58
2022-12-23T09:32:39.430Z,411.98
2022-12-23T09:37:46.663Z,411.52
2022-12-23T09:42:53.901Z,412.29
2022-12-23T09:48:01.073Z,410.52
2022-12-23T09:53:08.310Z,411.49
2022-12-23T09:58:15.467Z,412.03
2022-12-23T10:03:22.937Z,411.38
2022-12-23T10:08:29.991Z,412.97
2022-12-23T10:13:37.161Z,412.62
2022-12-23T10:18:44.481Z,413.90
2022-12-23T10:23:51.729Z,414.52
2022-12-23T10:28:59.002Z,414.74
2022-12-23T10:34:06.223Z,415.38
2022-12-23T10:39:13.455Z,416.02
2022-12-23T10:44:20.619Z,416.45
2022-12-23T10:49:27.846Z,416.18
2022-12-23T10:54:35.132Z,416.20
2022-12-23T10:59:42.364Z,418.36
2022-12-23T11:04:49.516Z,416.96
2022-12-23T11:09:56.740Z,417.76
2022-12-23T11:15:03.929Z,419.51
2022-12-23T11:20:11.152Z,420.86
2022-12-23T11:25:18.402Z,421.20
2022-12-23T11:30:25.539Z,421.01
2022-12-23T11:35:32.827Z,421.18
2022-12-23T11:40:40.000Z,421.93
2022-12-23T11:45:47.177Z,422.30
2022-12-23T11:50:54.407Z,422.58
2022-12-23T11:56:01.665Z,421.76
2022-12-23T12:01:08.887Z,423.77
2022-12-23T12:06:16.048Z,424.36
2022-12-23T12:11:23.296Z,424.20
2022-12-23T12:16:30.587Z,424.96
2022-12-23T12:21:37.738Z,425.35
2022-12-23T12:26:44.955Z,426.72
2022-12-23T12:31:52.200Z,426.73
2022-12-23T12:36:59.488Z,425.55
2022-12-23T12:42:06.759Z,424.39
2022-12-23T12:47:36.154Z,424.34
2022-12-23T12:52:21.310Z,426.73
2022-12-23T12:57:28.784Z,425.89
2022-12-23T13:02:36.040Z,425.76
2022-12-23T13:07:43.263Z,429.10
2022-12-23T13:12:50.547Z,427.01
2022-12-23T13:18:01.911Z,426.09
2022-12-23T13:23:33.867Z,424.80
2022-12-23T13:28:12.241Z,425.62
2022-12-23T13:33:19.384Z,426.92
2022-12-23T13:38:26.556Z,425.74
2022-12-23T13:43:33.830Z,428.77
2022-12-23T13:48:41.072Z,427.05
2022-12-23T13:53:48.261Z,429.43
2022-12-23T13:58:55.504Z,428.20
2022-12-23T14:04:02.719Z,427.98
2022-12-23T14:09:09.930Z,429.58
2022-12-23T14:14:17.155Z,426.19
2022-12-23T14:19:24.383Z,427.24
2022-12-23T14:24:31.677Z,427.23
2022-12-23T14:29:39.005Z,426.32
2022-12-23T14:34:46.157Z,426.41
2022-12-23T14:39:53.363Z,426.73
2022-12-23T14:45:00.606Z,425.89
2022-12-23T14:50:07.765Z,426.33
2022-12-23T14:55:30.300Z,427.48
2022-12-23T15:00:22.288Z,427.87
2022-12-23T15:05:29.479Z,425.49
2022-12-23T15:10:36.669Z,424.28
2022-12-23T15:15:43.908Z,426.44
2022-12-23T15:20:51.029Z,425.12
2022-12-23T15:25:58.243Z,423.37
2022-12-23T15:31:05.541Z,424.60
2022-12-23T15:36:12.651Z,425.42
2022-12-23T15:41:19.748Z,422.74
2022-12-23T15:46:30.151Z,426.93
2022-12-23T15:52:05.726Z,424.86
2022-12-23T15:56:41.333Z,428.11
2022-12-23T16:01:48.717Z,425.47
2022-12-23T16:06:55.748Z,427.88
2022-12-23T16:12:03.003Z,426.57
2022-12-23T16:17:10.329Z,425.18
2022-12-23T16:22:17.442Z,427.05
2022-12-23T16:27:24.701Z,425.77
2022-12-23T16:32:32.012Z,425.95
2022-12-23T16:37:39.027Z,424.75
2022-12-23T16:42:46.235Z,423.22
2022-12-23T16:47:53.497Z,426.10
2022-12-23T16:53:00.679Z,423.47
2022-12-23T16:58:07.889Z,421.72
2022-12-23T17:03:15.137Z,420.92
2022-12-23T17:08:22.371Z,421.96
2022-12-23T17:13:29.623Z,420.37
2022-12-23T17:18:36.846Z,422.42
2022-12-23T17:23:44.031Z,420.93
2022-12-23T17:28:51.225Z,418.81
2022-12-23T17:33:58.457Z,423.60
2022-12-23T17:39:05.644Z,423.88
2022-12-23T17:44:12.914Z,424.52
2022-12-23T17:49:20.140Z,424.08
2022-12-23T17:54:27.342Z,423.49
2022-12-23T17:59:34.550Z,422.10
2022-12-23T18:04:41.781Z,422.43
2022-12-23T18:09:49.020Z,422.77
2022-12-23T18:14:56.256Z,421.42
2022-12-23T18:20:03.444Z,422.16
2022-12-23T18:25:10.660Z,423.42
2022-12-23T18:30:17.879Z,421.64
2022-12-23T18:35:25.112Z,424.32
2022-12-23T18:40:33.236Z,427.46
2022-12-23T18:45:39.507Z,423.96
2022-12-23T18:50:46.860Z,422.76
2022-12-23T18:55:53.965Z,423.67
2022-12-23T19:01:01.229Z,422.34
2022-12-23T19:06:08.477Z,419.44
2022-12-23T19:11:15.729Z,420.60
2022-12-23T19:16:23.000Z,420.40
2022-12-23T19:21:30.158Z,419.47
2022-12-23T19:26:37.304Z,416.82
2022-12-23T19:31:44.544Z,416.26
2022-12-23T19:36:51.859Z,412.92
2022-12-23T19:41:58.991Z,413.33
2022-12-23T19:47:06.159Z,413.24
2022-12-23T19:52:13.437Z,411.70
2022-12-23T19:57:20.602Z,410.30
2022-12-23T20:02:28.554Z,407.08
2022-12-23T20:07:35.617Z,408.48
2022-12-23T20:12:42.826Z,408.54
2022-12-23T20:17:50.028Z,403.76
2022-12-23T20:22:57.343Z,407.56
2022-12-23T20:28:04.815Z,410.15
2022-12-23T20:33:12.213Z,410.83
2022-12-23T20:38:19.445Z,408.69
2022-12-23T20:43:26.836Z,411.14
2022-12-23T20:48:34.711Z,409.30
2022-12-23T20:53:41.340Z,409.23
2022-12-23T20:58:48.658Z,408.99
2022-12-23T21:03:55.887Z,407.42
2022-12-23T21:09:03.125Z,408.15
2022-12-23T21:14:10.272Z,408.37
2022-12-23T21:19:17.525Z,409.99
2022-12-23T21:24:24.761Z,411.69
2022-12-23T21:29:31.966Z,410.07
2022-12-23T21:34:39.202Z,407.60
2022-12-23T21:39:46.413Z,410.64
2022-12-23T21:44:53.594Z,410.77
2022-12-23T21:50:00.827Z,412.22
2022-12-23T21:55:08.039Z,411.57
2022-12-23T22:00:15.220Z,412.55
2022-12-23T22:05:22.438Z,412.64
2022-12-23T22:10:29.660Z,411.90
2022-12-23T22:15:36.831Z,409.47
2022-12-23T22:20:46.308Z,409.07
2022-12-23T22:25:51.255Z,409.82
2022-12-23T22:30:58.455Z,408.97
2022-12-23T22:36:05.668Z,408.42
2022-12-23T22:41:12.884Z,407.65
2022-12-23T22:46:20.157Z,411.71
2022-12-23T22:51:27.289Z,409.27
2022-12-23T22:56:34.454Z,409.09
2022-12-23T23:01:41.686Z,408.06
2022-12-23T23:06:48.816Z,407.63
2022-12-23T23:11:56.038Z,405.83
2022-12-23T23:17:03.227Z,406.06
2022-12-23T23:22:10.347Z,402.86
2022-12-23T23:27:17.528Z,404.88
2022-12-23T23:32:24.779Z,403.73
2022-12-23T23:37:31.860Z,401.67
2022-12-23T23:42:39.131Z,400.70
2022-12-23T23:47:46.312Z,400.50
2022-12-23T23:52:53.763Z,398.78
2022-12-23T23:58:00.956Z,399.83
